メインページ
METAR-TAF:

METAR-TAF

空港 :

シモン・ボリバル国際空港

カラカス, ベネズエラ

緯度: 10-36N, 経度: 066-59W, 海抜: 43m

現時点の気象観測

当レポートは28分前の04:00(UTC)に作成
の風 1kt
気温 24°C
湿度 94%
気圧 1010 hPa
視程10km以上
高度1600ftの雲はほとんどない

METAR: SVMI 220400Z 09001KT 9999 FEW016 24/23 Q1010

時間: 00:28 (04:28 UTC)

予報

当レポートは6時間28分前の22:00(UTC)に作成
予報は22日の 00時(UTC)から 23日の 00時(UTC)まで有効
の風 6kt
視程10km以上
高度1600ftの千切れ雲あり
22日の 00時(UTC)から 22日の 04時(UTC)まで徐々に
の風 4kt
視程: 9000m
高度1600ftの雲は散在している
小霧雨

TAF: SVMI 212200Z 2200/2300 09006KT 9999 BKN016 TX31/19Z TN23/09Z BECMG 2200/2204 09004KT 9000 -DZ SCT016

4,000以上の空港の気象観測と天気予報(METAR報とTAF報)

利用可能な観測所は地図上に黄色い丸と赤い丸で示す。

丸の上にカーソルを重ねると観測所名を参照できる。

次にクリックすると気象観測と天気予報を参照できる。

マップの切り替え:黒色「×」印の緑ボタンをクリックして拡大、「-」印の緑ボタンをクリックして縮小、緑色の三角印をクリックして隣りの地図に切り替え


METAR-TAF: